Time;durP1;ratioP1;P1;durP2;ratioP2;P2;SDS_P1;SDS_P2;PMS_P1;PMS_P2;Temp;Humidity;BMP_temperature;BMP_pressure;BME280_temperature;BME280_humidity;BME280_pressure;Samples;Min_cycle;Max_cycle;Signal;HPM_P1;HPM_P2
2022/09/03 00:02:47;;;;;;;0.00;0.00;;;;;;;19.40;48.32;101179.25;5097236;27;20605;-73
2022/09/03 00:08:20;;;;;;;0.00;0.00;;;;;;;19.32;48.61;101170.69;5068387;28;20399;-73
2022/09/03 00:10:56;;;;;;;0.57;0.57;;;;;;;19.24;48.75;101175.63;5063079;28;20036;-73
2022/09/03 00:13:30;;;;;;;0.00;0.00;;;;;;;19.20;48.76;101176.69;5052000;28;20491;-73
2022/09/03 00:15:58;;;;;;;0.03;0.03;;;;;;;19.12;48.92;101169.03;5047347;28;20021;-74
2022/09/03 00:18:28;;;;;;;0.10;0.10;;;;;;;19.11;48.80;101169.13;5047394;28;20111;-74
2022/09/03 00:21:07;;;;;;;0.00;0.00;;;;;;;19.08;48.85;101164.78;5048660;28;20502;-73
2022/09/03 00:23:37;;;;;;;0.10;0.10;;;;;;;19.05;48.90;101171.16;5050390;28;20025;-75
2022/09/03 00:26:24;;;;;;;0.05;0.05;;;;;;;19.07;48.77;101163.03;5050294;28;20032;-76
2022/09/03 00:28:58;;;;;;;0.00;0.00;;;;;;;19.01;49.12;101166.88;5044521;28;20101;-75
2022/09/03 00:31:44;;;;;;;0.30;0.30;;;;;;;19.03;49.13;101162.31;5043837;28;20559;-72
2022/09/03 00:34:28;;;;;;;0.00;0.00;;;;;;;18.97;49.09;101157.25;5042972;28;20398;-73
2022/09/03 00:36:54;;;;;;;0.17;0.17;;;;;;;18.91;49.37;101153.03;5046293;28;20017;-72
2022/09/03 00:39:23;;;;;;;0.08;0.08;;;;;;;18.89;49.42;101164.78;5044545;28;20083;-73
2022/09/03 00:45:05;;;;;;;0.10;0.10;;;;;;;18.91;49.22;101157.56;5087004;27;20595;-73
2022/09/03 00:53:38;;;;;;;0.10;0.10;;;;;;;18.78;49.68;101159.97;5074041;27;20401;-74
2022/09/03 00:56:44;;;;;;;0.15;0.15;;;;;;;18.76;49.93;101167.22;5049642;28;20045;-74
2022/09/03 01:08:08;;;;;;;0.10;0.10;;;;;;;18.70;50.27;101164.81;5114709;27;20173;-72
2022/09/03 01:10:52;;;;;;;0.10;0.10;;;;;;;18.65;49.96;101166.88;5106794;28;20106;-73
2022/09/03 01:13:42;;;;;;;0.00;0.00;;;;;;;18.68;49.93;101166.72;5113368;27;20116;-72
2022/09/03 01:19:30;;;;;;;0.20;0.20;;;;;;;18.67;50.06;101165.84;5059026;28;20774;-73
2022/09/03 01:22:34;;;;;;;0.10;0.10;;;;;;;18.64;50.71;101168.69;5072324;28;20063;-73
2022/09/03 01:30:57;;;;;;;0.00;0.00;;;;;;;18.54;50.32;101167.38;5088008;27;20368;-71
2022/09/03 01:33:50;;;;;;;0.00;0.00;;;;;;;18.55;50.31;101174.50;5085458;28;20032;-75
2022/09/03 01:39:25;;;;;;;0.10;0.10;;;;;;;18.62;50.08;101175.94;5058453;28;20912;-73
2022/09/03 01:42:17;;;;;;;0.05;0.05;;;;;;;18.68;50.11;101172.97;5057927;28;20036;-73
2022/09/03 01:48:17;;;;;;;1.02;0.68;;;;;;;18.67;49.86;101165.84;5059733;28;20396;-73
2022/09/03 01:50:56;;;;;;;0.00;0.00;;;;;;;18.63;50.00;101175.00;5042799;28;20037;-73
2022/09/03 02:02:08;;;;;;;0.10;0.10;;;;;;;18.73;49.18;101159.31;5109976;27;20936;-73
2022/09/03 02:04:35;;;;;;;0.00;0.00;;;;;;;18.66;48.93;101163.25;5060418;28;20799;-73
2022/09/03 02:07:02;;;;;;;0.00;0.00;;;;;;;18.62;49.03;101156.28;5072191;28;20025;-72
2022/09/03 02:09:31;;;;;;;0.10;0.10;;;;;;;18.64;49.01;101160.66;5067485;28;20028;-72
2022/09/03 02:12:06;;;;;;;0.17;0.17;;;;;;;18.65;48.97;101154.31;5063631;28;20028;-72
2022/09/03 02:14:32;;;;;;;0.00;0.00;;;;;;;18.64;48.99;101152.59;5063927;28;20036;-72
2022/09/03 02:17:00;;;;;;;0.00;0.00;;;;;;;18.62;48.98;101151.78;5066799;28;20033;-73
2022/09/03 02:19:28;;;;;;;0.00;0.00;;;;;;;18.61;48.67;101154.56;5071206;28;20142;-73
2022/09/03 02:21:56;;;;;;;0.00;0.00;;;;;;;18.61;49.00;101149.19;5071829;28;20032;-72
2022/09/03 02:24:25;;;;;;;0.05;0.05;;;;;;;18.60;49.27;101142.94;5067671;28;20477;-72
2022/09/03 02:26:52;;;;;;;0.00;0.00;;;;;;;18.61;49.04;101151.88;5059829;28;20029;-72
2022/09/03 02:29:20;;;;;;;0.10;0.10;;;;;;;18.60;48.83;101148.31;5069664;28;20032;-73
2022/09/03 02:31:46;;;;;;;0.10;0.10;;;;;;;18.59;49.05;101146.56;5057399;28;20024;-73
2022/09/03 02:34:13;;;;;;;0.03;0.03;;;;;;;18.61;48.86;101142.00;5065904;28;20405;-73
2022/09/03 02:36:44;;;;;;;0.10;0.10;;;;;;;18.62;48.71;101141.06;5066643;28;20474;-72
2022/09/03 02:39:12;;;;;;;0.10;0.10;;;;;;;18.59;49.06;101146.56;5062981;28;20029;-74
2022/09/03 02:41:39;;;;;;;0.10;0.10;;;;;;;18.57;48.93;101143.97;5066911;28;20043;-73
2022/09/03 02:46:56;;;;;;;0.10;0.10;;;;;;;18.57;48.86;101143.97;5108276;27;20399;-72
2022/09/03 02:49:22;;;;;;;0.20;0.20;;;;;;;18.50;48.58;101147.03;5109968;27;20404;-73
2022/09/03 02:51:49;;;;;;;0.22;0.22;;;;;;;18.51;48.64;101143.41;5110378;28;20031;-72
2022/09/03 02:54:15;;;;;;;0.00;0.00;;;;;;;18.47;49.05;101152.53;5102983;28;20496;-73
2022/09/03 02:56:41;;;;;;;0.03;0.03;;;;;;;18.45;49.11;101154.44;5105505;28;20034;-73
2022/09/03 02:59:08;;;;;;;0.10;0.10;;;;;;;18.41;48.97;101145.66;5102706;28;20552;-73
2022/09/03 03:01:35;;;;;;;0.00;0.00;;;;;;;18.38;49.08;101144.00;5092281;28;20040;-73
2022/09/03 03:04:02;;;;;;;0.08;0.08;;;;;;;18.37;49.08;101144.94;5093238;28;20028;-74
2022/09/03 03:06:28;;;;;;;0.10;0.10;;;;;;;18.35;49.10;101149.47;5095719;28;20028;-75
2022/09/03 03:08:55;;;;;;;0.10;0.10;;;;;;;18.34;48.89;101150.41;5096856;28;20119;-74
2022/09/03 03:11:21;;;;;;;0.17;0.17;;;;;;;18.33;48.82;101137.97;5092854;28;20029;-74
2022/09/03 03:13:48;;;;;;;2.83;0.65;;;;;;;18.30;49.55;101135.44;5095784;28;20545;-76
2022/09/03 03:16:15;;;;;;;0.00;0.00;;;;;;;18.32;49.22;101138.91;5093307;28;20028;-73
2022/09/03 03:18:45;;;;;;;0.00;0.00;;;;;;;18.27;49.71;101139.13;5098870;27;20032;-75
2022/09/03 03:21:13;;;;;;;0.03;0.03;;;;;;;18.28;49.42;101145.38;5092580;28;20513;-76
2022/09/03 03:23:40;;;;;;;0.10;0.10;;;;;;;18.27;48.91;101140.97;5093312;27;20033;-76
2022/09/03 03:26:10;;;;;;;0.10;0.10;;;;;;;18.27;48.99;101141.81;5094075;28;20108;-73
2022/09/03 03:28:37;;;;;;;0.00;0.00;;;;;;;18.27;48.81;101135.59;5095371;28;20040;-74
2022/09/03 03:31:08;;;;;;;0.10;0.10;;;;;;;18.29;49.25;101139.03;5097746;28;20039;-75
2022/09/03 03:33:34;;;;;;;0.00;0.00;;;;;;;18.25;48.99;101138.31;5091455;28;20034;-76
2022/09/03 03:36:13;;;;;;;0.10;0.10;;;;;;;18.27;49.11;101140.97;5094385;28;20108;-74
2022/09/03 03:38:40;;;;;;;0.00;0.00;;;;;;;18.24;49.34;101136.59;5096118;28;20506;-75
2022/09/03 03:41:11;;;;;;;0.00;0.00;;;;;;;18.23;49.38;101139.34;5094851;28;20046;-75
2022/09/03 03:43:37;;;;;;;0.10;0.10;;;;;;;18.20;49.20;101144.88;5092410;28;20032;-74
2022/09/03 03:46:04;;;;;;;0.10;0.10;;;;;;;18.15;49.39;101145.06;5094994;28;20078;-74
2022/09/03 03:48:31;;;;;;;0.10;0.10;;;;;;;18.13;49.38;101140.72;5091612;28;20055;-75
2022/09/03 03:51:03;;;;;;;0.10;0.10;;;;;;;18.10;49.31;101145.28;5098108;27;20506;-74
2022/09/03 03:53:30;;;;;;;0.20;0.20;;;;;;;18.05;49.73;101147.31;5100695;28;20027;-75
2022/09/03 03:55:58;;;;;;;0.20;0.20;;;;;;;18.04;49.82;101150.94;5095099;28;20036;-73
2022/09/03 03:58:25;;;;;;;0.03;0.03;;;;;;;18.01;49.66;101151.09;5077470;28;20654;-74
2022/09/03 04:00:52;;;;;;;0.10;0.10;;;;;;;17.98;50.46;101145.88;5082140;28;20043;-74
2022/09/03 04:03:18;;;;;;;0.10;0.10;;;;;;;17.97;50.14;101151.28;5080777;28;20028;-74
2022/09/03 04:05:55;;;;;;;0.08;0.08;;;;;;;17.99;50.70;101147.59;5086922;28;20024;-74
2022/09/03 04:08:22;;;;;;;0.00;0.00;;;;;;;17.90;50.63;101156.91;5084463;28;20028;-72
2022/09/03 04:10:48;;;;;;;0.00;0.00;;;;;;;17.84;51.17;101159.84;5078290;28;20036;-74
2022/09/03 04:13:14;;;;;;;0.00;0.00;;;;;;;17.81;51.04;101151.09;5079947;28;20032;-74
2022/09/03 04:15:41;;;;;;;0.10;0.10;;;;;;;17.81;50.49;101151.09;5079865;28;20114;-74
2022/09/03 04:18:07;;;;;;;0.57;0.57;;;;;;;17.77;51.09;101148.56;5076742;28;20362;-74
2022/09/03 04:20:35;;;;;;;0.10;0.10;;;;;;;17.76;50.69;101152.16;5077741;28;20027;-74
2022/09/03 04:23:02;;;;;;;0.00;0.00;;;;;;;17.74;50.60;101151.34;5074158;28;20394;-73
2022/09/03 04:25:28;;;;;;;0.03;0.03;;;;;;;17.72;51.22;101149.69;5082143;28;20564;-74
2022/09/03 04:27:54;;;;;;;0.43;0.30;;;;;;;17.69;50.83;101150.69;5076214;28;20048;-74
2022/09/03 04:30:21;;;;;;;0.08;0.08;;;;;;;17.68;51.01;101150.78;5079203;28;20039;-75
2022/09/03 04:32:53;;;;;;;0.10;0.10;;;;;;;17.66;51.33;101149.97;5078769;28;20059;-74
2022/09/03 04:35:22;;;;;;;0.10;0.10;;;;;;;17.65;50.88;101154.47;5082381;28;20028;-74
2022/09/03 04:37:48;;;;;;;0.00;0.00;;;;;;;17.63;51.72;101148.28;5083846;28;20032;-75
2022/09/03 04:40:15;;;;;;;0.10;0.10;;;;;;;17.58;51.24;101150.31;5077449;28;20056;-74
2022/09/03 04:42:41;;;;;;;0.10;0.10;;;;;;;17.57;50.84;101145.88;5078934;28;20036;-74
2022/09/03 04:45:07;;;;;;;0.10;0.10;;;;;;;17.55;51.20;101143.28;5076243;28;20047;-74
2022/09/03 04:47:35;;;;;;;0.10;0.10;;;;;;;17.55;51.27;101147.78;5079343;28;20445;-74
2022/09/03 04:50:04;;;;;;;0.10;0.10;;;;;;;17.53;50.98;101141.63;5084514;28;20030;-74
2022/09/03 04:52:30;;;;;;;0.00;0.00;;;;;;;17.51;51.27;101147.06;5079955;28;20028;-74
2022/09/03 04:54:57;;;;;;;0.00;0.00;;;;;;;17.49;51.75;101142.69;5081949;28;20489;-75
2022/09/03 04:57:23;;;;;;;0.00;0.00;;;;;;;17.46;51.56;101141.88;5082261;28;20024;-75
2022/09/03 04:59:49;;;;;;;2.63;0.55;;;;;;;17.46;51.87;101149.06;5077791;28;20032;-75
2022/09/03 05:02:15;;;;;;;0.05;0.05;;;;;;;17.45;51.37;101142.81;5078069;28;20056;-73
2022/09/03 05:04:41;;;;;;;0.30;0.30;;;;;;;17.44;51.44;101141.06;5080571;28;20035;-75
2022/09/03 05:07:08;;;;;;;0.10;0.10;;;;;;;17.42;51.63;101145.66;5077430;28;20056;-75
2022/09/03 05:09:34;;;;;;;0.00;0.00;;;;;;;17.41;52.17;101148.41;5080218;27;20031;-74
2022/09/03 05:12:01;;;;;;;0.00;0.00;;;;;;;17.37;52.36;101144.97;5075773;28;20032;-74
2022/09/03 05:14:27;;;;;;;0.08;0.08;;;;;;;17.37;51.58;101150.34;5080153;28;20036;-75
2022/09/03 05:16:53;;;;;;;0.03;0.03;;;;;;;17.38;51.64;101145.84;5080781;28;20374;-75
2022/09/03 05:19:19;;;;;;;0.10;0.10;;;;;;;17.38;51.89;101146.69;5076041;28;20374;-75
2022/09/03 05:21:45;;;;;;;1.80;0.43;;;;;;;17.37;52.91;101150.34;5083900;28;20020;-75
2022/09/03 05:24:11;;;;;;;0.10;0.10;;;;;;;17.40;52.40;101149.34;5076873;28;20054;-73
2022/09/03 05:26:39;;;;;;;0.10;0.10;;;;;;;17.42;52.10;101150.13;5077400;28;20032;-74
2022/09/03 05:29:06;;;;;;;0.00;0.00;;;;;;;17.41;52.15;101151.94;5077894;28;20071;-74
2022/09/03 05:31:34;;;;;;;0.10;0.10;;;;;;;17.39;52.01;101153.81;5081198;28;20034;-76
2022/09/03 05:34:03;;;;;;;0.00;0.00;;;;;;;17.40;52.05;101147.50;5077245;28;20068;-75
2022/09/03 05:36:33;;;;;;;0.43;0.22;;;;;;;17.43;51.86;101144.72;5082309;28;20020;-75
2022/09/03 05:38:59;;;;;;;0.28;0.28;;;;;;;17.47;51.96;101145.47;5084638;28;20024;-75
2022/09/03 05:41:27;;;;;;;0.08;0.08;;;;;;;17.50;52.02;101144.44;5078510;28;20024;-74
2022/09/03 05:43:55;;;;;;;0.00;0.00;;;;;;;17.51;52.24;101154.19;5075061;28;20115;-74
2022/09/03 05:46:25;;;;;;;0.00;0.00;;;;;;;17.54;51.53;101151.41;5077067;28;20029;-75
2022/09/03 05:48:51;;;;;;;0.00;0.00;;;;;;;17.56;52.11;101142.34;5080494;28;20054;-74
2022/09/03 05:51:19;;;;;;;0.20;0.20;;;;;;;17.60;51.78;101154.66;5082187;28;20111;-74
2022/09/03 05:53:47;;;;;;;0.00;0.00;;;;;;;17.65;51.53;101142.91;5077924;28;20036;-73
2022/09/03 05:56:17;;;;;;;0.00;0.00;;;;;;;17.64;51.54;101152.72;5077671;28;20020;-74
2022/09/03 05:58:46;;;;;;;0.00;0.00;;;;;;;17.72;51.41;101155.94;5073410;28;20409;-75
2022/09/03 06:03:57;;;;;;;0.10;0.10;;;;;;;17.80;51.31;101147.53;5044784;28;20407;-73
2022/09/03 06:06:25;;;;;;;0.10;0.10;;;;;;;17.86;51.05;101154.44;5043100;28;20029;-73
2022/09/03 06:08:54;;;;;;;0.05;0.05;;;;;;;17.90;50.94;101158.72;5039958;28;20033;-73
2022/09/03 06:11:25;;;;;;;0.10;0.10;;;;;;;17.89;51.47;101160.50;5042693;28;20152;-75
2022/09/03 06:13:52;;;;;;;0.10;0.10;;;;;;;17.90;51.20;101156.03;5038509;28;20120;-76
2022/09/03 06:16:18;;;;;;;0.00;0.00;;;;;;;17.98;50.70;101145.88;5037685;28;20034;-75
2022/09/03 06:18:44;;;;;;;0.05;0.05;;;;;;;18.05;50.74;101150.00;5039898;28;20029;-76
2022/09/03 06:21:10;;;;;;;0.10;0.10;;;;;;;18.10;51.15;101149.78;5041205;28;20030;-75
2022/09/03 06:23:36;;;;;;;0.00;0.00;;;;;;;18.14;51.04;101155.88;5037342;28;20048;-76
2022/09/03 06:26:08;;;;;;;0.22;0.22;;;;;;;18.19;51.37;101152.03;5044007;28;20048;-76
2022/09/03 06:28:36;;;;;;;0.25;0.25;;;;;;;18.30;50.62;101151.53;5040640;28;20033;-76
2022/09/03 06:31:04;;;;;;;0.20;0.20;;;;;;;18.36;50.34;101156.59;5038512;28;20060;-76
2022/09/03 06:33:33;;;;;;;0.15;0.15;;;;;;;18.43;50.26;101157.19;5037498;28;20029;-76
2022/09/03 06:36:01;;;;;;;0.10;0.10;;;;;;;18.42;49.85;101150.94;5036290;28;20414;-76
2022/09/03 06:38:30;;;;;;;0.00;0.00;;;;;;;18.53;49.71;101147.75;5029359;28;20052;-75
2022/09/03 06:41:02;;;;;;;0.00;0.00;;;;;;;18.61;49.75;101157.25;5037898;28;20029;-77
2022/09/03 06:43:30;;;;;;;0.10;0.10;;;;;;;18.73;49.56;101162.00;5038066;28;20068;-76
2022/09/03 06:45:58;;;;;;;0.00;0.00;;;;;;;18.82;49.57;101158.00;5031636;28;20411;-76
2022/09/03 06:48:25;;;;;;;0.40;0.40;;;;;;;18.85;49.39;101155.16;5042109;28;20053;-75
2022/09/03 06:50:57;;;;;;;0.10;0.10;;;;;;;18.93;49.25;101166.41;5039366;28;20045;-76
2022/09/03 06:53:28;;;;;;;0.10;0.10;;;;;;;18.95;49.00;101164.50;5043299;28;20035;-76
2022/09/03 06:55:56;;;;;;;0.20;0.20;;;;;;;18.95;48.46;101156.44;5039243;28;20024;-75
2022/09/03 06:58:23;;;;;;;0.10;0.10;;;;;;;19.07;48.79;101163.88;5037168;28;20037;-77
2022/09/03 07:00:51;;;;;;;0.30;0.30;;;;;;;19.19;48.67;101166.88;5037537;28;20405;-77
2022/09/03 07:03:18;;;;;;;0.08;0.08;;;;;;;19.24;48.86;101165.72;5036292;28;21265;-77
2022/09/03 07:05:45;;;;;;;0.10;0.10;;;;;;;19.24;48.50;101168.41;5033745;28;20048;-78
2022/09/03 07:08:11;;;;;;;0.10;0.10;;;;;;;19.37;48.72;101159.72;5034682;28;20094;-76
2022/09/03 07:10:37;;;;;;;0.08;0.08;;;;;;;19.44;48.20;101161.13;5035948;28;20033;-75
2022/09/03 07:13:05;;;;;;;0.10;0.10;;;;;;;19.52;48.04;101160.72;5031649;28;20022;-76
2022/09/03 07:15:32;;;;;;;0.10;0.10;;;;;;;19.55;48.14;101168.63;5027966;28;20025;-76
2022/09/03 07:17:59;;;;;;;0.10;0.10;;;;;;;19.61;48.32;101170.13;5026723;28;20044;-76
2022/09/03 07:20:25;;;;;;;0.10;0.10;;;;;;;19.70;48.62;101175.00;5031832;28;20121;-76
2022/09/03 07:22:58;;;;;;;0.10;0.10;;;;;;;19.73;47.90;101172.16;5030210;28;20040;-77
2022/09/03 07:25:25;;;;;;;0.05;0.05;;;;;;;19.78;47.21;101172.78;5027646;28;20112;-77
2022/09/03 07:27:52;;;;;;;0.25;0.25;;;;;;;19.88;47.49;101171.38;5030369;28;20473;-77
2022/09/03 07:30:19;;;;;;;15.00;1.40;;;;;;;19.95;47.57;101176.41;5026475;28;20110;-77
2022/09/03 07:32:45;;;;;;;0.10;0.10;;;;;;;20.08;47.31;101169.41;5023626;28;20033;-77
2022/09/03 07:35:12;;;;;;;0.00;0.00;;;;;;;20.10;47.90;101177.41;5021931;28;20041;-76
2022/09/03 07:37:42;;;;;;;0.20;0.20;;;;;;;20.22;47.17;101176.72;5021385;28;20048;-77
2022/09/03 07:40:09;;;;;;;0.10;0.10;;;;;;;20.26;46.65;101177.41;5019183;28;20037;-77
2022/09/03 07:42:37;;;;;;;0.00;0.00;;;;;;;20.34;46.37;101173.34;5017919;28;20079;-76
2022/09/03 07:45:08;;;;;;;0.10;0.10;;;;;;;20.46;45.68;101170.91;5022880;28;20129;-77
2022/09/03 07:47:36;;;;;;;0.70;0.70;;;;;;;20.58;45.65;101170.22;5024870;28;20030;-78
2022/09/03 07:50:03;;;;;;;0.10;0.10;;;;;;;20.62;45.10;101169.13;5027713;28;20495;-78
2022/09/03 07:52:29;;;;;;;0.10;0.10;;;;;;;20.73;45.47;101178.44;5024562;28;20075;-78
2022/09/03 07:54:55;;;;;;;0.03;0.03;;;;;;;20.84;45.18;101170.59;5021625;28;20033;-78
2022/09/03 07:57:25;;;;;;;0.10;0.10;;;;;;;20.97;45.38;101179.69;5027683;28;20116;-78
2022/09/03 07:59:51;;;;;;;2.63;0.40;;;;;;;21.08;45.67;101179.03;5026124;28;20061;-78
2022/09/03 08:02:17;;;;;;;0.52;0.52;;;;;;;21.17;45.42;101183.03;5026941;28;20033;-78
2022/09/03 08:04:44;;;;;;;0.10;0.10;;;;;;;21.19;44.78;101186.50;5024754;28;20046;-77
2022/09/03 08:07:10;;;;;;;0.38;0.38;;;;;;;21.36;44.42;101181.91;5028348;28;20061;-78
2022/09/03 08:09:36;;;;;;;0.00;0.00;;;;;;;21.43;44.59;101188.69;5020600;28;20034;-79
2022/09/03 08:12:03;;;;;;;0.10;0.10;;;;;;;21.52;44.53;101188.16;5018721;28;20076;-77
2022/09/03 08:14:30;;;;;;;0.20;0.20;;;;;;;21.64;44.46;101182.00;5021300;28;20030;-78
2022/09/03 08:16:58;;;;;;;21.63;1.13;;;;;;;21.73;44.49;101187.81;5026215;28;20022;-78
2022/09/03 08:19:24;;;;;;;0.10;0.10;;;;;;;21.78;43.44;101185.69;5024754;28;20025;-77
2022/09/03 08:21:51;;;;;;;0.00;0.00;;;;;;;21.91;44.31;101189.38;5020363;28;20395;-77
2022/09/03 08:24:20;;;;;;;0.20;0.20;;;;;;;21.98;44.61;101195.22;5026135;28;20040;-79
2022/09/03 08:26:46;;;;;;;0.10;0.10;;;;;;;21.90;43.32;101193.03;5021224;28;20445;-77
2022/09/03 08:29:12;;;;;;;0.15;0.15;;;;;;;21.99;43.55;101199.66;5024766;28;20033;-79
2022/09/03 08:31:38;;;;;;;0.10;0.10;;;;;;;22.08;44.53;101206.31;5021407;28;20033;-78
2022/09/03 08:34:06;;;;;;;0.10;0.10;;;;;;;22.14;43.50;101212.22;5021832;28;20083;-78
2022/09/03 08:36:35;;;;;;;0.10;0.10;;;;;;;22.18;43.33;101212.00;5029396;28;20052;-78
2022/09/03 08:39:06;;;;;;;0.20;0.20;;;;;;;22.28;44.06;101210.44;5020708;28;20032;-77
2022/09/03 08:42:00;;;;;;;0.20;0.20;;;;;;;22.40;43.72;101201.59;5016984;28;20117;-79
2022/09/03 08:47:16;;;;;;;0.20;0.20;;;;;;;22.67;43.15;101197.19;5136537;27;20409;-77
2022/09/03 08:52:39;;;;;;;0.10;0.10;;;;;;;23.00;43.00;101196.81;5043490;28;20391;-78
2022/09/03 09:11:58;;;;;;;0.08;0.08;;;;;;;23.91;40.59;101195.13;5105652;27;20328;-77
2022/09/03 09:22:46;;;;;;;0.20;0.20;;;;;;;24.21;40.15;101197.53;5104447;27;20743;-79
2022/09/03 09:25:23;;;;;;;0.60;0.60;;;;;;;24.27;40.33;101193.50;5066477;28;20037;-78
2022/09/03 09:30:48;;;;;;;0.10;0.10;;;;;;;24.44;39.62;101195.00;5079478;27;20363;-82
2022/09/03 09:33:15;;;;;;;0.10;0.10;;;;;;;24.54;39.67;101209.59;5077647;28;20408;-80
2022/09/03 09:35:43;;;;;;;0.10;0.10;;;;;;;24.68;39.65;101199.59;5068981;28;20098;-80
2022/09/03 09:38:10;;;;;;;0.20;0.20;;;;;;;24.75;39.88;101200.00;5071160;28;20295;-80
2022/09/03 09:40:40;;;;;;;0.20;0.20;;;;;;;24.99;38.94;101194.59;5072811;28;20082;-81
2022/09/03 09:43:16;;;;;;;0.10;0.10;;;;;;;25.09;39.12;101198.34;5081005;28;20025;-80
2022/09/03 09:45:45;;;;;;;0.10;0.10;;;;;;;25.13;39.50;101205.25;5070707;28;20085;-80
2022/09/03 09:51:20;;;;;;;0.00;0.00;;;;;;;25.50;38.53;101202.44;5058396;28;20403;-78
2022/09/03 09:53:47;;;;;;;0.10;0.10;;;;;;;25.39;38.25;101205.13;5037178;28;20056;-79
2022/09/03 09:56:23;;;;;;;0.10;0.10;;;;;;;25.58;38.82;101214.56;5041991;28;20047;-79
2022/09/03 09:58:51;;;;;;;0.10;0.10;;;;;;;25.56;38.07;101205.66;5045327;28;20033;-79
2022/09/03 10:01:24;;;;;;;0.08;0.08;;;;;;;25.68;37.47;101204.72;5043086;28;20100;-79
2022/09/03 10:03:54;;;;;;;0.10;0.10;;;;;;;25.85;37.49;101211.53;5048382;28;20026;-79
2022/09/03 10:06:57;;;;;;;0.03;0.03;;;;;;;25.97;37.69;101199.69;5043029;28;20065;-79
2022/09/03 10:09:15;;;;;;;0.10;0.10;;;;;;;26.06;36.64;101200.84;5045596;28;20060;-79
2022/09/03 10:11:50;;;;;;;0.05;0.05;;;;;;;26.19;36.93;101203.44;5047505;28;20041;-80
2022/09/03 10:14:24;;;;;;;0.08;0.08;;;;;;;26.30;36.79;101205.28;5043671;28;20025;-80
2022/09/03 10:16:59;;;;;;;0.10;0.10;;;;;;;26.45;36.70;101193.16;5043814;28;20072;-79
2022/09/03 10:20:25;;;;;;;0.40;0.38;;;;;;;26.60;37.92;101187.47;5036478;28;20052;-80
2022/09/03 10:22:33;;;;;;;0.00;0.00;;;;;;;26.65;37.81;101187.94;5043976;28;20040;-80
2022/09/03 10:25:02;;;;;;;0.10;0.10;;;;;;;26.74;36.98;101181.78;5048347;28;20124;-79
2022/09/03 10:27:28;;;;;;;0.20;0.20;;;;;;;26.85;37.29;101177.28;5045651;28;20562;-80
2022/09/03 10:29:55;;;;;;;0.10;0.10;;;;;;;26.88;37.59;101177.03;5048936;28;20033;-79
2022/09/03 10:33:02;;;;;;;0.45;0.45;;;;;;;27.07;36.63;101171.75;5045870;28;20048;-80
2022/09/03 10:35:32;;;;;;;0.10;0.10;;;;;;;27.04;37.73;101166.59;5044166;28;20037;-80
2022/09/03 10:46:34;;;;;;;0.10;0.10;;;;;;;27.47;36.84;101163.94;5098351;27;20386;-79
2022/09/03 10:49:27;;;;;;;0.10;0.10;;;;;;;27.69;37.02;101161.03;5087023;28;20024;-78
2022/09/03 10:57:37;;;;;;;0.10;0.10;;;;;;;27.98;35.26;101157.59;5106696;27;1186427;-78
2022/09/03 11:03:19;;;;;;;0.10;0.10;;;;;;;28.18;34.40;101154.97;5088603;27;20440;-78
2022/09/03 11:08:43;;;;;;;2.20;0.80;;;;;;;28.39;34.25;101154.91;5100395;27;20405;-78
2022/09/03 11:13:57;;;;;;;0.10;0.10;;;;;;;28.45;34.15;101146.16;5059609;28;20402;-78
2022/09/03 11:16:29;;;;;;;0.10;0.10;;;;;;;28.58;34.18;101151.34;5047288;28;20037;-78
2022/09/03 11:19:05;;;;;;;0.98;0.82;;;;;;;28.63;33.99;101161.81;5038287;28;20029;-78
2022/09/03 11:21:35;;;;;;;0.10;0.10;;;;;;;28.69;34.48;101153.97;5039977;28;20021;-77
2022/09/03 11:24:22;;;;;;;0.10;0.10;;;;;;;28.87;32.87;101156.88;5048814;28;20029;-79
2022/09/03 11:26:56;;;;;;;0.30;0.30;;;;;;;28.87;32.99;101155.97;5044170;28;20041;-79
2022/09/03 11:29:39;;;;;;;0.10;0.10;;;;;;;28.98;32.93;101153.09;5029435;28;20120;-79
2022/09/03 11:32:14;;;;;;;0.00;0.00;;;;;;;29.05;32.46;101143.34;5036815;28;20031;-79
2022/09/03 11:34:50;;;;;;;0.05;0.05;;;;;;;29.15;32.16;101156.13;5049556;28;20034;-79
2022/09/03 11:37:26;;;;;;;0.10;0.10;;;;;;;29.21;31.55;101152.84;5039978;28;20025;-79
2022/09/03 11:42:44;;;;;;;0.10;0.10;;;;;;;29.21;31.48;101155.56;5064259;27;20379;-78
2022/09/03 11:48:17;;;;;;;0.15;0.15;;;;;;;29.50;30.92;101152.78;5035872;27;20413;-78
2022/09/03 11:50:53;;;;;;;0.10;0.10;;;;;;;29.60;31.42;101147.31;5031539;28;20037;-78
2022/09/03 11:58:43;;;;;;;0.10;0.10;;;;;;;29.73;31.11;101143.38;5068854;28;20386;-78
2022/09/03 12:01:11;;;;;;;0.17;0.17;;;;;;;29.84;31.26;101143.19;5048660;28;20025;-78
2022/09/03 12:06:53;;;;;;;0.20;0.20;;;;;;;29.99;31.14;101149.06;5048383;28;20408;-78
2022/09/03 12:12:31;;;;;;;0.15;0.15;;;;;;;30.04;31.25;101137.69;5144964;27;20382;-78
2022/09/03 12:15:09;;;;;;;1.55;0.63;;;;;;;30.16;30.81;101141.94;5129683;27;20043;-78
2022/09/03 12:18:27;;;;;;;0.20;0.20;;;;;;;30.31;31.01;101145.88;5129225;27;20019;-78
2022/09/03 12:20:43;;;;;;;0.10;0.10;;;;;;;30.39;30.37;101141.53;5127395;27;20050;-78
2022/09/03 12:23:28;;;;;;;0.10;0.10;;;;;;;30.54;30.67;101140.00;5129552;27;20145;-78
2022/09/03 12:25:55;;;;;;;0.10;0.10;;;;;;;30.70;30.98;101155.72;5130219;28;20110;-78
2022/09/03 12:28:27;;;;;;;1.35;0.68;;;;;;;30.69;29.08;101142.22;5129847;27;20047;-78
2022/09/03 12:30:53;;;;;;;0.10;0.10;;;;;;;30.78;30.05;101139.41;5129569;28;20043;-78
2022/09/03 12:33:28;;;;;;;0.17;0.17;;;;;;;30.91;30.00;101144.47;5128650;27;20042;-78
2022/09/03 12:35:56;;;;;;;0.10;0.10;;;;;;;30.94;28.70;101140.56;5128297;28;20058;-78
2022/09/03 12:38:24;;;;;;;0.43;0.43;;;;;;;31.02;29.27;101142.50;5129393;28;20034;-78
2022/09/03 12:40:50;;;;;;;0.10;0.10;;;;;;;31.09;29.73;101136.28;5129188;28;20135;-78
2022/09/03 12:43:17;;;;;;;0.10;0.10;;;;;;;31.06;30.93;101132.97;5129501;27;20067;-78
2022/09/03 12:45:46;;;;;;;1.95;0.65;;;;;;;31.07;29.31;101137.47;5130075;28;20038;-78
2022/09/03 12:48:14;;;;;;;0.10;0.10;;;;;;;31.20;29.34;101129.69;5128866;28;20088;-78
2022/09/03 12:50:41;;;;;;;0.15;0.15;;;;;;;31.28;28.84;101129.75;5127865;28;20038;-78
2022/09/03 12:53:11;;;;;;;0.15;0.15;;;;;;;31.36;29.38;101128.94;5129492;27;20035;-78
2022/09/03 12:55:47;;;;;;;0.45;0.43;;;;;;;31.38;28.04;101129.66;5129851;28;20027;-78
2022/09/03 12:58:25;;;;;;;0.03;0.03;;;;;;;31.51;28.62;101126.47;5127745;28;20076;-78
2022/09/03 13:01:10;;;;;;;0.45;0.38;;;;;;;31.58;28.78;101121.22;5126091;28;20115;-78
2022/09/03 13:06:32;;;;;;;0.10;0.10;;;;;;;31.57;28.54;101125.81;5109071;27;20431;-79
2022/09/03 13:09:03;;;;;;;0.45;0.45;;;;;;;31.60;28.35;101120.03;5109303;27;20031;-79
2022/09/03 13:11:36;;;;;;;0.68;0.40;;;;;;;31.64;29.07;101117.00;5110125;28;20069;-79
2022/09/03 13:14:05;;;;;;;0.10;0.10;;;;;;;31.64;28.80;101125.22;5110280;28;20028;-78
2022/09/03 13:19:40;;;;;;;0.25;0.25;;;;;;;31.76;29.28;101115.69;5008919;28;20394;-79
2022/09/03 13:28:32;;;;;;;0.03;0.03;;;;;;;32.02;26.62;101123.00;5104673;27;20140;-78
2022/09/03 13:39:36;;;;;;;0.00;0.00;;;;;;;32.12;26.75;101112.75;5068580;27;20411;-79
2022/09/03 13:42:11;;;;;;;0.25;0.25;;;;;;;32.17;27.06;101107.63;5078451;28;20032;-79
2022/09/03 13:44:49;;;;;;;0.30;0.30;;;;;;;32.30;26.22;101106.31;5066772;28;20025;-78
2022/09/03 13:50:34;;;;;;;0.30;0.30;;;;;;;32.37;26.27;101104.63;5079307;27;1871987;-79
2022/09/03 13:52:56;;;;;;;0.10;0.10;;;;;;;32.32;26.35;101105.13;5119318;28;20095;-79
2022/09/03 14:03:31;;;;;;;0.15;0.10;;;;;;;32.49;27.56;101103.28;5128364;27;20809;-79
2022/09/03 14:06:22;;;;;;;0.17;0.17;;;;;;;32.58;26.70;101107.75;5131457;28;20038;-79
2022/09/03 14:11:58;;;;;;;0.10;0.10;;;;;;;32.64;25.54;101106.22;5109440;27;20419;-79
2022/09/03 14:14:44;;;;;;;;;;;;;;;32.90;26.37;101110.75;5085222;28;20054;-79
2022/09/03 14:17:18;;;;;;;0.10;0.10;;;;;;;32.87;25.71;101111.06;5094055;28;20436;-79
2022/09/03 14:19:59;;;;;;;0.10;0.10;;;;;;;32.89;25.73;101109.88;5089562;28;20028;-79
2022/09/03 14:25:15;;;;;;;0.15;0.15;;;;;;;33.09;26.71;101112.28;5028155;28;20392;-82
2022/09/03 14:27:42;;;;;;;0.57;0.55;;;;;;;33.14;26.54;101111.75;5027540;28;20037;-82